Time;durP1;ratioP1;P1;durP2;ratioP2;P2;SDS_P1;SDS_P2;PMS_P1;PMS_P2;Temp;Humidity;BMP_temperature;BMP_pressure;BME280_temperature;BME280_humidity;BME280_pressure;Samples;Min_cycle;Max_cycle;Signal;HPM_P1;HPM_P2
2023/11/18 02:40:35;;;;;;;7.70;6.80;;;;;;;11.41;61.07;99648.72;6568720;30;20221;-92
2023/11/18 02:43:58;;;;;;;8.20;7.07;;;;;;;10.96;61.01;99610.34;6558444;30;20244;-91
2023/11/18 02:47:20;;;;;;;8.33;7.53;;;;;;;11.09;61.95;99651.81;6558849;30;20274;-90
2023/11/18 02:50:42;;;;;;;9.23;7.90;;;;;;;11.17;62.21;99648.19;6557373;30;20259;-91
2023/11/18 02:54:06;;;;;;;10.23;8.10;;;;;;;11.27;61.73;99640.66;6632672;29;20206;-91
2023/11/18 02:57:27;;;;;;;8.73;7.87;;;;;;;11.12;60.74;99575.91;6706012;29;20326;-91
2023/11/18 03:00:50;;;;;;;9.87;7.87;;;;;;;11.58;60.50;99638.50;6711185;29;20266;-92
2023/11/18 03:04:13;;;;;;;9.33;8.33;;;;;;;11.31;60.33;99594.19;6704265;29;20253;-90
2023/11/18 03:07:35;;;;;;;8.60;7.70;;;;;;;11.62;59.93;99623.63;6704437;29;20236;-91
2023/11/18 03:10:58;;;;;;;8.67;7.77;;;;;;;11.12;60.16;99615.53;6707060;29;20291;-91
2023/11/18 03:14:19;;;;;;;9.13;7.77;;;;;;;11.06;60.80;99600.94;6711436;29;20215;-92
2023/11/18 03:17:42;;;;;;;9.87;8.43;;;;;;;11.13;60.94;99634.25;6710423;29;20297;-91
2023/11/18 03:21:06;;;;;;;11.57;8.93;;;;;;;11.04;61.17;99600.28;6711890;29;20284;-92
2023/11/18 03:24:28;;;;;;;8.27;7.47;;;;;;;10.66;60.38;99511.59;6712943;29;20302;-91
2023/11/18 03:27:49;;;;;;;8.93;8.13;;;;;;;11.20;60.69;99591.13;6711478;29;20233;-91
2023/11/18 03:31:12;;;;;;;7.67;6.97;;;;;;;11.34;60.35;99607.28;6708006;29;20831;-90
2023/11/18 03:34:35;;;;;;;9.83;7.33;;;;;;;11.35;60.79;99637.81;6711524;29;21078;-91
2023/11/18 03:37:56;;;;;;;10.47;9.47;;;;;;;10.87;60.88;99552.13;6711237;29;20684;-91
2023/11/18 03:41:18;;;;;;;8.73;7.93;;;;;;;11.54;60.48;99635.34;6705480;29;20230;-91
2023/11/18 03:44:40;;;;;;;7.87;7.17;;;;;;;11.45;59.96;99614.88;6699672;29;20252;-91
2023/11/18 03:48:02;;;;;;;9.70;8.13;;;;;;;10.92;60.01;99571.28;6711214;29;20243;-91
2023/11/18 03:51:25;;;;;;;8.70;7.80;;;;;;;10.35;61.17;99533.41;6714420;29;20233;-92
2023/11/18 03:54:47;;;;;;;8.17;7.37;;;;;;;10.75;60.55;99559.03;6686917;29;20316;-91
2023/11/18 03:58:09;;;;;;;8.93;7.30;;;;;;;10.91;60.90;99618.16;6687416;29;20241;-91
2023/11/18 04:01:32;;;;;;;8.43;7.53;;;;;;;10.99;60.54;99636.97;6691299;29;20229;-90
2023/11/18 04:04:54;;;;;;;8.70;7.73;;;;;;;10.89;61.09;99620.22;6709343;29;20217;-91
2023/11/18 04:08:17;;;;;;;8.13;7.27;;;;;;;10.95;60.99;99636.50;6714256;29;20774;-91
2023/11/18 04:11:39;;;;;;;11.47;8.37;;;;;;;11.16;60.67;99655.44;6713249;29;20312;-92
2023/11/18 04:15:01;;;;;;;11.83;10.63;;;;;;;10.94;61.51;99634.81;6710835;29;20212;-92
2023/11/18 04:18:23;;;;;;;7.33;6.63;;;;;;;10.75;60.72;99634.56;6713488;29;20298;-90
2023/11/18 04:21:48;;;;;;;8.30;6.47;;;;;;;10.92;60.01;99620.66;6715170;29;20225;-91
2023/11/18 04:25:12;;;;;;;8.20;5.57;;;;;;;10.94;60.30;99615.94;6717563;29;20210;-91
2023/11/18 04:28:33;;;;;;;6.53;5.80;;;;;;;10.66;60.13;99539.41;6712448;29;20221;-91
2023/11/18 04:31:55;;;;;;;5.40;4.90;;;;;;;11.16;60.29;99654.63;6716557;29;20297;-90
2023/11/18 04:35:17;;;;;;;6.57;5.93;;;;;;;10.51;60.06;99546.66;6714445;29;20710;-90
2023/11/18 04:38:38;;;;;;;6.70;6.00;;;;;;;10.85;60.72;99629.69;6718595;29;20224;-90
2023/11/18 04:42:02;;;;;;;6.83;6.13;;;;;;;10.58;61.34;99576.44;6721675;29;20376;-91
2023/11/18 04:45:23;;;;;;;8.57;6.60;;;;;;;10.60;61.70;99617.50;6714316;29;20213;-91
2023/11/18 04:48:45;;;;;;;7.23;5.60;;;;;;;9.91;63.08;99607.03;6719117;29;20495;-91
2023/11/18 04:52:07;;;;;;;6.27;5.67;;;;;;;10.83;61.06;99639.84;6697476;29;20693;-90
2023/11/18 04:55:29;;;;;;;5.63;5.13;;;;;;;11.09;60.06;99635.63;6696191;29;20216;-92
2023/11/18 04:58:52;;;;;;;4.83;4.30;;;;;;;10.63;59.34;99596.41;6697381;29;20223;-90
2023/11/18 05:02:14;;;;;;;5.13;4.73;;;;;;;11.00;58.83;99633.22;6695501;29;20221;-91
2023/11/18 05:05:37;;;;;;;5.07;4.67;;;;;;;9.92;60.64;99563.78;6701377;29;20236;-90
2023/11/18 05:08:59;;;;;;;5.70;5.20;;;;;;;10.67;60.13;99610.34;6721415;29;20236;-90
2023/11/18 05:12:20;;;;;;;5.67;4.93;;;;;;;10.41;59.56;99575.78;6717563;29;20221;-92
2023/11/18 05:15:45;;;;;;;5.63;5.13;;;;;;;10.60;60.74;99634.53;6720034;29;20216;-91
2023/11/18 05:19:07;;;;;;;6.20;5.50;;;;;;;10.25;60.54;99589.41;6720056;29;20332;-90
2023/11/18 05:22:29;;;;;;;6.20;5.60;;;;;;;10.05;61.22;99595.50;6706825;29;20216;-90
2023/11/18 05:25:50;;;;;;;6.67;6.07;;;;;;;9.34;61.55;99515.13;6717912;29;20324;-90
2023/11/18 05:29:16;;;;;;;9.87;7.40;;;;;;;9.88;63.65;99653.22;6713855;29;20225;-89
2023/11/18 05:32:40;;;;;;;7.70;6.50;;;;;;;10.01;62.14;99640.81;6719406;29;20208;-89
2023/11/18 05:46:14;;;;;;;6.87;6.20;;;;;;;10.07;61.37;99640.13;6666350;29;20308;-89
2023/11/18 06:19:59;;;;;;;6.90;6.20;;;;;;;9.25;61.06;99521.59;6448912;30;20242;-91
2023/11/18 06:23:23;;;;;;;8.37;7.00;;;;;;;9.27;60.47;99518.75;6537588;30;20350;-91
2023/11/18 06:26:44;;;;;;;6.70;6.10;;;;;;;8.79;62.46;99591.63;6576685;30;20568;-91
2023/11/18 06:30:07;;;;;;;7.53;6.73;;;;;;;9.67;61.46;99613.47;6566562;30;20321;-92
2023/11/18 06:33:37;;;;;;;8.50;7.57;;;;;;;9.04;60.82;99502.56;6574379;30;20213;-91
2023/11/18 06:37:00;;;;;;;7.23;6.47;;;;;;;9.27;60.28;99524.13;6594251;30;20217;-92
2023/11/18 06:40:26;;;;;;;7.63;6.80;;;;;;;9.76;60.08;99633.09;6589199;30;20290;-92
2023/11/18 06:43:56;;;;;;;7.40;6.70;;;;;;;9.84;60.41;99649.19;6695017;29;20235;-93
2023/11/18 06:47:19;;;;;;;8.63;7.40;;;;;;;9.63;60.61;99647.16;6723119;29;20235;-91
2023/11/18 06:50:44;;;;;;;7.97;6.97;;;;;;;8.45;61.38;99548.09;6720084;29;20691;-93
2023/11/18 06:54:13;;;;;;;7.83;7.00;;;;;;;8.39;62.01;99580.19;6708101;29;20204;-91
2023/11/18 06:57:34;;;;;;;7.37;6.53;;;;;;;9.12;61.88;99625.44;6711411;29;20214;-91
2023/11/18 07:00:56;;;;;;;8.83;7.93;;;;;;;8.96;61.53;99579.78;6709527;29;20293;-90
2023/11/18 07:04:19;;;;;;;7.50;6.73;;;;;;;8.67;63.08;99636.03;6708945;29;20211;-91
2023/11/18 07:07:40;;;;;;;8.30;6.80;;;;;;;9.15;61.66;99655.50;6718934;29;20231;-92
2023/11/18 07:11:05;;;;;;;10.67;7.57;;;;;;;8.93;60.85;99552.41;6723119;29;20239;-89
2023/11/18 07:14:27;;;;;;;13.30;10.90;;;;;;;9.11;61.79;99661.44;6710992;29;20287;-92
2023/11/18 07:17:49;;;;;;;13.00;8.97;;;;;;;9.25;61.44;99618.47;6708753;29;20206;-93
2023/11/18 07:21:10;;;;;;;12.37;9.37;;;;;;;9.45;60.78;99594.63;6708784;29;20414;-91
2023/11/18 07:24:32;;;;;;;11.13;8.80;;;;;;;9.62;61.12;99676.97;6714512;29;20687;-89
2023/11/18 07:28:02;;;;;;;11.33;7.97;;;;;;;8.64;60.43;99595.22;6720673;29;20295;-89
2023/11/18 07:31:24;;;;;;;8.67;7.87;;;;;;;9.62;60.34;99660.81;6713654;29;20227;-90
2023/11/18 07:35:25;;;;;;;9.87;8.90;;;;;;;9.64;60.97;99675.75;6717687;29;20211;-92
2023/11/18 07:39:41;;;;;;;12.23;8.07;;;;;;;9.70;59.63;99663.44;6699392;29;20608;-91
2023/11/18 07:43:09;;;;;;;10.20;8.37;;;;;;;9.20;60.54;99617.31;6713087;29;20284;-90
2023/11/18 07:46:38;;;;;;;9.80;7.53;;;;;;;9.76;59.91;99652.81;6692060;29;20653;-89
2023/11/18 07:49:59;;;;;;;7.60;5.67;;;;;;;9.81;59.95;99655.78;6704974;29;20221;-88
2023/11/18 07:53:21;;;;;;;8.80;7.90;;;;;;;10.20;60.37;99659.19;6709127;29;20661;-86
2023/11/18 07:56:46;;;;;;;8.63;6.97;;;;;;;10.61;58.68;99660.47;6707833;29;20691;-84
2023/11/18 08:00:10;;;;;;;7.90;7.13;;;;;;;10.01;59.74;99645.34;6713649;29;20240;-83
2023/11/18 08:03:33;;;;;;;8.53;7.47;;;;;;;10.56;59.57;99649.41;6712847;29;20546;-84
2023/11/18 08:06:55;;;;;;;8.17;6.93;;;;;;;10.33;61.03;99650.50;6708626;29;20614;-81
2023/11/18 08:10:18;;;;;;;7.33;6.67;;;;;;;11.02;59.78;99650.06;6711637;29;20263;-84
2023/11/18 08:13:40;;;;;;;7.53;6.73;;;;;;;11.10;59.35;99652.69;6710180;29;20291;-82
2023/11/18 08:17:04;;;;;;;8.00;7.20;;;;;;;11.18;58.66;99639.06;6711617;29;20245;-82
2023/11/18 08:20:26;;;;;;;7.17;5.93;;;;;;;11.93;57.53;99645.75;6704951;29;20241;-85
2023/11/18 08:23:56;;;;;;;8.70;6.73;;;;;;;12.14;55.87;99652.00;6719504;29;20314;-84
2023/11/18 08:27:36;;;;;;;7.80;6.67;;;;;;;11.34;56.02;99503.88;6698453;29;20728;-84
2023/11/18 08:35:15;;;;;;;11.03;7.13;;;;;;;12.12;55.72;99655.91;6631525;29;20298;-85
2023/11/18 08:38:37;;;;;;;8.57;6.80;;;;;;;11.90;56.50;99616.41;6631212;29;20250;-86
2023/11/18 08:42:18;;;;;;;8.07;6.93;;;;;;;11.09;56.39;99526.88;6639406;29;20227;-87
2023/11/18 08:54:25;;;;;;;11.77;6.90;;;;;;;11.78;57.59;99645.81;6608280;30;20235;-90
2023/11/18 08:58:36;;;;;;;8.43;5.70;;;;;;;10.78;57.21;99510.94;6601662;30;20225;-88
2023/11/18 09:11:16;;;;;;;4.63;3.33;;;;;;;12.07;55.51;99561.91;6486737;30;20243;-87
2023/11/18 09:23:49;;;;;;;;;;;;;;;;;;;;;
2023/11/18 09:27:32;;;;;;;3.87;2.70;;;;;;;12.38;51.90;99504.69;6592149;30;20243;-88
2023/11/18 09:31:29;;;;;;;3.23;2.50;;;;;;;12.72;51.72;99556.06;6615932;29;20261;-89
2023/11/18 09:35:41;;;;;;;3.00;2.70;;;;;;;12.66;52.29;99651.56;6605253;30;20226;-86
2023/11/18 09:39:45;;;;;;;2.73;2.30;;;;;;;12.55;53.21;99652.94;6685499;29;20233;-85
2023/11/18 09:43:52;;;;;;;4.03;2.87;;;;;;;13.48;51.94;99650.56;6707135;29;20217;-85
2023/11/18 09:47:39;;;;;;;2.50;2.30;;;;;;;13.04;50.13;99642.88;6707391;29;20735;-86
2023/11/18 09:51:02;;;;;;;2.97;2.73;;;;;;;13.57;50.27;99606.00;6706999;29;20704;-86
2023/11/18 09:54:42;;;;;;;2.53;2.33;;;;;;;13.45;48.94;99624.72;6706073;29;20753;-86
2023/11/18 09:58:35;;;;;;;2.73;2.40;;;;;;;14.24;49.10;99618.44;6707112;29;20268;-86
2023/11/18 10:02:36;;;;;;;2.37;2.17;;;;;;;14.33;48.76;99625.31;6706471;29;20261;-86
2023/11/18 10:06:34;;;;;;;2.97;2.27;;;;;;;14.32;49.36;99639.06;6700539;29;20209;-87
2023/11/18 10:09:58;;;;;;;2.73;2.30;;;;;;;12.52;52.49;99617.34;6681017;29;20847;-87
2023/11/18 10:13:22;;;;;;;3.00;2.30;;;;;;;13.83;50.14;99587.94;6680807;29;20293;-87
2023/11/18 10:20:25;;;;;;;2.77;2.30;;;;;;;14.38;47.14;99552.28;6680566;29;20321;-87
2023/11/18 10:24:00;;;;;;;2.33;2.13;;;;;;;13.87;47.27;99543.06;6690641;29;20644;-88
2023/11/18 11:36:16;;;;;;;4.83;2.70;;;;;;;13.92;47.15;99428.63;6689255;29;20193;-85
2023/11/18 11:39:47;;;;;;;3.47;2.30;;;;;;;14.96;46.42;99569.44;6690198;29;20296;-86
2023/11/18 11:43:58;;;;;;;2.33;2.20;;;;;;;14.42;46.46;99474.84;6654186;29;20214;-85
2023/11/18 11:51:13;;;;;;;5.10;2.80;;;;;;;14.41;47.02;99492.16;6628135;29;20630;-86
2023/11/18 11:54:41;;;;;;;3.37;2.70;;;;;;;14.76;47.08;99545.06;6637018;29;20309;-86
2023/11/18 12:01:40;;;;;;;2.47;2.27;;;;;;;14.33;46.65;99489.66;6677603;29;20297;-84
2023/11/18 12:05:06;;;;;;;4.97;2.73;;;;;;;14.88;46.67;99520.81;6709388;29;20607;-84
2023/11/18 12:08:31;;;;;;;2.50;2.30;;;;;;;14.65;46.98;99524.03;6708940;29;20245;-83
2023/11/18 12:11:55;;;;;;;4.63;2.80;;;;;;;14.61;46.47;99530.09;6707151;29;20703;-85
2023/11/18 12:15:56;;;;;;;3.27;2.80;;;;;;;14.88;46.30;99515.38;6705346;29;20209;-84
2023/11/18 12:19:30;;;;;;;2.33;2.13;;;;;;;14.55;46.44;99501.09;6703584;29;20228;-84
2023/11/18 12:23:14;;;;;;;2.40;2.20;;;;;;;14.72;46.32;99486.84;6684903;29;20193;-85
2023/11/18 12:26:41;;;;;;;3.97;2.50;;;;;;;14.40;47.18;99487.75;6706673;29;20218;-85
2023/11/18 12:30:04;;;;;;;3.63;2.50;;;;;;;14.11;46.58;99482.78;6705804;29;20328;-82
2023/11/18 12:33:30;;;;;;;3.20;2.50;;;;;;;14.08;46.94;99463.41;6706643;29;20575;-84
2023/11/18 12:37:21;;;;;;;3.40;2.60;;;;;;;13.54;48.34;99462.81;6701550;29;20217;-84
2023/11/18 12:40:55;;;;;;;3.13;2.20;;;;;;;14.07;47.47;99449.03;6681875;29;20233;-85
2023/11/18 12:44:35;;;;;;;2.50;2.30;;;;;;;14.30;47.85;99444.00;6685937;29;20252;-85
2023/11/18 12:47:58;;;;;;;4.83;2.67;;;;;;;14.60;47.35;99447.00;6711703;29;20684;-85
2023/11/18 12:51:22;;;;;;;3.53;2.57;;;;;;;14.76;47.08;99443.81;6707665;29;20237;-85
2023/11/18 12:54:44;;;;;;;2.97;2.60;;;;;;;14.32;47.53;99411.19;6709086;29;20644;-85
2023/11/18 12:58:06;;;;;;;3.03;2.73;;;;;;;14.24;47.27;99411.44;6709018;29;20299;-85
2023/11/18 13:01:33;;;;;;;3.97;2.60;;;;;;;14.41;47.38;99426.22;6709945;29;22275;-85
2023/11/18 13:04:55;;;;;;;3.60;2.77;;;;;;;13.91;47.77;99359.16;6709495;29;20217;-85
2023/11/18 13:08:16;;;;;;;2.97;2.57;;;;;;;14.36;47.67;99416.00;6709614;29;20293;-85
2023/11/18 13:11:59;;;;;;;2.87;2.67;;;;;;;14.22;48.12;99418.97;6702894;29;20269;-84
2023/11/18 13:15:24;;;;;;;5.17;2.90;;;;;;;14.58;47.49;99439.06;6706694;29;20203;-85
2023/11/18 13:18:49;;;;;;;2.77;2.57;;;;;;;14.51;47.75;99432.03;6710644;29;20197;-83
2023/11/18 13:22:13;;;;;;;4.70;3.20;;;;;;;13.75;49.09;99367.75;6709988;29;20197;-85
2023/11/18 13:29:45;;;;;;;5.87;3.10;;;;;;;14.39;48.86;99414.75;6688577;29;20255;-84
2023/11/18 13:33:07;;;;;;;3.00;2.70;;;;;;;14.45;49.35;99416.59;6712075;29;20216;-85
2023/11/18 13:36:30;;;;;;;3.37;3.07;;;;;;;14.23;49.85;99401.66;6710846;29;20220;-85
2023/11/18 13:39:54;;;;;;;4.57;3.20;;;;;;;14.07;49.26;99361.41;6711303;29;20221;-84
2023/11/18 13:43:16;;;;;;;3.40;3.10;;;;;;;13.94;50.36;99386.69;6711124;29;20362;-85
2023/11/18 13:46:39;;;;;;;4.37;3.17;;;;;;;14.06;50.51;99346.19;6710660;29;20229;-86
2023/11/18 13:50:01;;;;;;;4.23;3.37;;;;;;;13.03;51.31;99256.81;6698577;29;20689;-84
2023/11/18 13:53:25;;;;;;;7.23;3.90;;;;;;;14.06;51.46;99365.16;6684038;29;20221;-85
2023/11/18 13:56:46;;;;;;;5.47;3.60;;;;;;;14.13;51.18;99355.97;6683561;29;20277;-84
2023/11/18 14:00:14;;;;;;;4.57;3.90;;;;;;;14.09;51.76;99367.47;6684346;29;20322;-85
2023/11/18 14:03:37;;;;;;;7.27;4.73;;;;;;;14.14;51.60;99345.94;6684150;29;20624;-85
2023/11/18 14:07:02;;;;;;;5.63;4.20;;;;;;;14.37;51.63;99362.56;6700588;29;20259;-85
2023/11/18 14:10:25;;;;;;;5.30;4.67;;;;;;;14.49;51.46;99344.56;6683970;29;20630;-84
2023/11/18 14:13:46;;;;;;;6.33;4.80;;;;;;;14.44;51.35;99339.78;6684307;29;20237;-84
2023/11/18 14:17:10;;;;;;;6.30;4.87;;;;;;;14.46;51.21;99345.00;6685702;29;20308;-85
2023/11/18 14:20:31;;;;;;;9.27;4.37;;;;;;;14.30;51.84;99340.91;6684978;29;20233;-85
2023/11/18 14:23:56;;;;;;;5.43;4.40;;;;;;;13.99;52.11;99335.34;6687467;29;20209;-85
2023/11/18 14:27:18;;;;;;;4.90;3.77;;;;;;;13.57;53.33;99345.91;6702709;29;20220;-85
2023/11/18 14:30:40;;;;;;;5.27;3.60;;;;;;;13.55;52.91;99310.88;6706800;29;20237;-85
2023/11/18 14:34:03;;;;;;;7.00;3.40;;;;;;;13.65;52.98;99332.13;6712066;29;20220;-85
2023/11/18 14:37:25;;;;;;;5.53;3.80;;;;;;;13.61;52.52;99337.13;6700713;29;20217;-85
2023/11/18 14:40:48;;;;;;;3.70;3.33;;;;;;;13.58;51.89;99342.16;6687092;29;20241;-84
2023/11/18 14:44:11;;;;;;;3.80;3.30;;;;;;;13.58;51.74;99336.72;6702306;29;20241;-84
2023/11/18 14:47:33;;;;;;;4.93;3.40;;;;;;;13.29;51.64;99340.69;6710103;29;20760;-84
2023/11/18 14:50:56;;;;;;;3.13;2.80;;;;;;;13.28;52.01;99319.28;6710143;29;20233;-85
2023/11/18 14:54:18;;;;;;;6.70;3.93;;;;;;;13.35;51.81;99315.53;6710501;29;20277;-84
2023/11/18 14:57:40;;;;;;;5.27;3.50;;;;;;;13.15;52.03;99290.31;6710769;29;20268;-84
2023/11/18 15:01:03;;;;;;;5.63;3.47;;;;;;;13.23;52.23;99300.09;6711149;29;20233;-84
2023/11/18 15:04:24;;;;;;;4.97;3.63;;;;;;;13.56;51.96;99300.88;6709699;29;20236;-85
2023/11/18 15:07:47;;;;;;;4.87;3.70;;;;;;;13.55;52.04;99308.19;6709899;29;20252;-85
2023/11/18 15:11:09;;;;;;;5.77;3.40;;;;;;;13.33;52.33;99300.53;6710869;29;20243;-85
2023/11/18 15:14:30;;;;;;;3.67;3.00;;;;;;;13.33;52.23;99303.22;6711031;29;20209;-85
2023/11/18 15:17:53;;;;;;;4.00;3.20;;;;;;;13.59;51.69;99304.00;6710898;29;20269;-84
2023/11/18 15:21:15;;;;;;;6.27;3.80;;;;;;;13.29;51.62;99218.03;6705137;29;20618;-84
2023/11/18 15:24:36;;;;;;;7.13;3.60;;;;;;;13.77;51.17;99293.34;6692796;29;20300;-85
2023/11/18 15:27:58;;;;;;;5.17;3.27;;;;;;;13.64;51.31;99292.53;6708041;29;20260;-85
2023/11/18 15:31:21;;;;;;;5.03;3.00;;;;;;;13.68;51.59;99296.50;6707486;29;20333;-85
2023/11/18 15:34:44;;;;;;;6.87;3.63;;;;;;;13.57;51.79;99295.25;6706581;29;20217;-84
2023/11/18 15:38:08;;;;;;;5.83;3.20;;;;;;;13.40;51.76;99285.09;6709872;29;20697;-84
2023/11/18 15:41:30;;;;;;;6.27;3.60;;;;;;;13.60;50.98;99275.03;6709212;29;20243;-84
2023/11/18 15:44:54;;;;;;;6.03;3.03;;;;;;;13.62;50.80;99291.91;6683734;29;20212;-85
2023/11/18 15:48:15;;;;;;;4.23;3.30;;;;;;;13.36;50.88;99270.28;6684348;29;20240;-84
2023/11/18 15:51:40;;;;;;;4.23;3.00;;;;;;;13.36;51.30;99309.06;6685662;29;20324;-85
2023/11/18 15:55:02;;;;;;;7.00;3.70;;;;;;;13.32;51.28;99288.00;6684496;29;20308;-85
2023/11/18 15:58:26;;;;;;;6.23;4.50;;;;;;;13.50;51.46;99317.97;6686451;29;20224;-84
2023/11/18 16:01:47;;;;;;;4.27;3.57;;;;;;;13.50;51.37;99316.09;6699358;29;20236;-84
2023/11/18 16:05:09;;;;;;;6.27;3.33;;;;;;;13.49;51.11;99273.81;6694315;29;20703;-85
2023/11/18 16:08:32;;;;;;;4.30;2.80;;;;;;;13.45;50.93;99288.81;6704949;29;20263;-84
2023/11/18 16:11:54;;;;;;;2.60;2.40;;;;;;;13.31;50.40;99299.88;6705800;29;20217;-85
2023/11/18 16:15:15;;;;;;;5.17;2.60;;;;;;;13.50;49.78;99293.59;6705672;29;20372;-84
2023/11/18 16:18:37;;;;;;;4.43;3.03;;;;;;;13.47;49.66;99284.03;6705817;29;20245;-85
2023/11/18 16:21:59;;;;;;;4.97;2.80;;;;;;;13.56;48.98;99262.94;6708553;29;20561;-84
2023/11/18 16:25:23;;;;;;;3.60;2.50;;;;;;;13.53;49.30;99250.69;6708564;29;20329;-85
2023/11/18 16:28:45;;;;;;;2.60;2.40;;;;;;;13.56;49.25;99243.97;6709001;29;20229;-85
2023/11/18 16:32:08;;;;;;;3.17;2.73;;;;;;;13.56;49.46;99247.53;6707757;29;20232;-85
2023/11/18 16:35:30;;;;;;;3.03;2.50;;;;;;;13.51;49.75;99217.53;6708094;29;20217;-85
2023/11/18 16:38:51;;;;;;;3.17;2.60;;;;;;;13.72;49.72;99238.09;6704236;29;20220;-84
2023/11/18 16:42:14;;;;;;;4.33;2.87;;;;;;;13.74;49.72;99241.44;6689112;29;20820;-84
2023/11/18 16:45:37;;;;;;;4.80;4.30;;;;;;;13.90;50.67;99244.47;6682777;29;20308;-83
2023/11/18 16:48:58;;;;;;;6.23;4.53;;;;;;;13.52;51.94;99232.75;6684407;29;20260;-83
2023/11/18 16:52:20;;;;;;;5.27;4.40;;;;;;;13.67;51.72;99232.47;6683611;29;20297;-84
2023/11/18 16:55:42;;;;;;;5.70;5.10;;;;;;;13.16;53.43;99220.78;6682945;29;20261;-84
2023/11/18 16:59:05;;;;;;;8.73;5.20;;;;;;;13.21;53.31;99215.56;6701787;29;20243;-84
2023/11/18 17:02:26;;;;;;;5.03;4.10;;;;;;;13.30;52.71;99208.84;6708808;29;20348;-84
2023/11/18 17:05:48;;;;;;;4.20;3.37;;;;;;;13.41;51.89;99197.38;6709354;29;20220;-84
2023/11/18 17:09:09;;;;;;;3.73;3.33;;;;;;;13.19;52.73;99175.16;6708019;29;20264;-84
2023/11/18 17:12:31;;;;;;;5.23;3.70;;;;;;;12.77;52.76;99107.97;6708638;29;20243;-84
2023/11/18 17:15:54;;;;;;;6.57;5.10;;;;;;;13.39;52.92;99175.09;6704442;29;20217;-84
2023/11/18 17:19:15;;;;;;;4.23;3.83;;;;;;;13.21;53.44;99185.78;6696311;29;20374;-84
2023/11/18 17:22:38;;;;;;;4.40;3.83;;;;;;;13.35;53.40;99188.22;6682955;29;20305;-84
2023/11/18 17:26:00;;;;;;;6.13;4.33;;;;;;;13.25;53.43;99187.00;6682594;29;20304;-84
2023/11/18 17:29:21;;;;;;;8.23;5.20;;;;;;;13.33;53.58;99190.31;6682326;29;20328;-84
2023/11/18 17:32:46;;;;;;;6.53;4.77;;;;;;;13.19;53.33;99163.47;6682434;29;20454;-85
2023/11/18 17:36:08;;;;;;;4.87;3.60;;;;;;;13.30;53.14;99182.63;6701058;29;20688;-83
2023/11/18 17:39:29;;;;;;;6.00;4.13;;;;;;;13.36;52.30;99154.69;6683845;29;20316;-83
2023/11/18 17:42:51;;;;;;;4.00;3.30;;;;;;;13.26;51.79;99154.28;6684162;29;20217;-83
2023/11/18 17:46:12;;;;;;;5.20;3.50;;;;;;;13.26;51.57;99135.34;6676018;29;20216;-86
2023/11/18 17:49:35;;;;;;;3.17;2.70;;;;;;;13.32;50.65;99125.50;6705010;29;20285;-84
2023/11/18 17:52:57;;;;;;;2.80;2.60;;;;;;;13.31;50.53;99122.00;6706131;29;20284;-86
2023/11/18 17:56:18;;;;;;;5.23;2.70;;;;;;;13.38;50.64;99116.53;6703691;29;20209;-86
2023/11/18 17:59:40;;;;;;;2.70;2.50;;;;;;;13.48;49.36;99112.34;6705659;29;20316;-82
2023/11/18 18:03:02;;;;;;;2.70;2.50;;;;;;;13.35;49.20;99096.16;6699496;29;20265;-85
2023/11/18 18:06:25;;;;;;;2.90;2.70;;;;;;;13.10;50.15;99102.50;6705601;29;20213;-87
2023/11/18 18:10:01;;;;;;;3.20;2.83;;;;;;;13.39;48.82;99104.66;6704998;29;20229;-85
2023/11/18 18:13:23;;;;;;;3.70;2.70;;;;;;;13.33;50.21;99119.88;6627515;29;20215;-86
2023/11/18 18:16:45;;;;;;;3.20;2.57;;;;;;;13.38;50.64;99138.19;6641646;29;20243;-86
2023/11/18 18:20:08;;;;;;;5.87;2.67;;;;;;;12.57;52.79;99133.41;6643942;29;20235;-86
2023/11/18 18:23:33;;;;;;;3.50;3.20;;;;;;;12.27;53.09;99124.88;6627387;29;20313;-85
2023/11/18 18:26:54;;;;;;;4.57;3.67;;;;;;;12.69;53.22;99112.78;6626646;29;20733;-85
2023/11/18 18:30:16;;;;;;;3.90;3.43;;;;;;;13.25;51.70;99094.94;6627301;29;20337;-85
2023/11/18 18:33:38;;;;;;;4.87;3.30;;;;;;;12.95;52.21;99089.22;6627197;29;20215;-85
2023/11/18 18:36:59;;;;;;;4.73;3.37;;;;;;;12.95;52.38;99053.16;6626149;29;20214;-86
2023/11/18 18:40:23;;;;;;;3.30;3.00;;;;;;;12.65;52.04;99089.88;6635397;29;20371;-87
2023/11/18 18:43:44;;;;;;;3.90;3.20;;;;;;;12.36;53.49;99066.00;6643837;29;20215;-86
2023/11/18 18:47:06;;;;;;;4.10;3.43;;;;;;;12.52;52.89;99087.22;6626324;29;20744;-86
2023/11/18 18:50:34;;;;;;;4.87;3.20;;;;;;;12.88;53.91;99065.91;6666607;29;20381;-87
2023/11/18 18:53:55;;;;;;;6.10;4.40;;;;;;;13.14;54.15;99063.09;6700149;29;20685;-87
2023/11/18 18:57:18;;;;;;;13.50;5.30;;;;;;;13.18;55.24;99051.66;6693166;29;20300;-87
2023/11/18 19:00:40;;;;;;;6.67;5.17;;;;;;;12.93;56.53;99049.84;6685442;29;20233;-87
2023/11/18 19:04:02;;;;;;;8.00;7.20;;;;;;;12.88;56.93;99041.53;6684768;29;20224;-85
2023/11/18 19:07:31;;;;;;;5.53;4.87;;;;;;;13.00;56.78;99035.28;6682590;29;20704;-86
2023/11/18 19:10:54;;;;;;;7.50;5.77;;;;;;;12.57;56.17;98919.72;6679863;29;20251;-87
2023/11/18 19:14:37;;;;;;;8.73;7.33;;;;;;;12.85;57.49;98971.59;6685963;29;20210;-90
2023/11/18 19:18:02;;;;;;;3.83;3.43;;;;;;;12.66;56.00;98999.56;6673430;29;20214;-88
2023/11/18 19:21:25;;;;;;;2.80;2.60;;;;;;;12.17;56.80;98999.28;6680365;29;20229;-89
2023/11/18 19:24:47;;;;;;;3.23;2.87;;;;;;;11.72;57.53;98965.03;6679114;29;20209;-88
2023/11/18 19:28:10;;;;;;;3.80;3.50;;;;;;;11.86;57.64;98947.78;6680593;29;20212;-88
2023/11/18 19:31:43;;;;;;;3.47;3.17;;;;;;;11.09;58.04;98860.34;6683974;29;20756;-88
2023/11/18 19:49:01;;;;;;;4.07;3.67;;;;;;;11.76;59.32;98917.66;6571800;30;20265;-88
2023/11/18 19:52:23;;;;;;;3.90;3.60;;;;;;;11.52;59.75;98892.09;6605624;29;20228;-88
2023/11/18 19:55:45;;;;;;;3.43;3.13;;;;;;;11.01;60.08;98874.03;6705793;29;20292;-89
2023/11/18 19:59:08;;;;;;;3.87;3.43;;;;;;;10.40;61.62;98891.31;6718961;29;20316;-88
2023/11/18 20:02:30;;;;;;;3.97;3.67;;;;;;;11.32;60.69;98947.13;6718348;29;20300;-88
2023/11/18 20:06:11;;;;;;;5.13;4.73;;;;;;;11.53;60.87;98896.47;6719865;29;20205;-89
2023/11/18 20:13:20;;;;;;;7.03;4.43;;;;;;;12.03;59.60;98836.34;6705305;29;20238;-89
2023/11/18 20:16:42;;;;;;;4.97;4.20;;;;;;;11.74;60.35;98831.44;6715327;29;20269;-89
2023/11/18 20:20:05;;;;;;;4.67;4.27;;;;;;;11.54;60.26;98802.78;6689063;29;20283;-88
2023/11/18 20:23:28;;;;;;;4.37;4.00;;;;;;;11.66;59.82;98779.50;6688404;29;20244;-88
2023/11/18 20:26:49;;;;;;;3.93;3.63;;;;;;;10.98;60.53;98728.78;6689669;29;20354;-87
2023/11/18 20:30:14;;;;;;;4.50;4.10;;;;;;;11.92;59.87;98869.41;6702249;29;20298;-88
2023/11/18 20:33:36;;;;;;;4.20;3.80;;;;;;;12.03;59.72;98876.88;6695026;29;20200;-88
2023/11/18 20:36:58;;;;;;;3.87;3.57;;;;;;;12.01;58.29;98887.06;6711407;29;20212;-88
2023/11/18 20:40:21;;;;;;;4.40;3.93;;;;;;;12.57;57.75;98904.31;6712091;29;20701;-88
2023/11/18 20:43:44;;;;;;;4.37;3.47;;;;;;;12.50;58.01;98889.16;6711328;29;20212;-88
2023/11/18 20:47:07;;;;;;;4.03;3.63;;;;;;;12.78;56.69;98873.41;6709032;29;20228;-88
2023/11/18 20:50:28;;;;;;;4.83;3.70;;;;;;;12.57;55.73;98779.91;6695929;29;20245;-88
2023/11/18 20:53:50;;;;;;;5.23;3.67;;;;;;;12.89;56.08;98824.00;6684795;29;20214;-88
2023/11/18 20:57:14;;;;;;;4.63;4.23;;;;;;;13.44;55.92;98856.50;6701104;29;20221;-86
2023/11/18 21:00:36;;;;;;;5.67;4.47;;;;;;;13.45;56.18;98854.63;6709504;29;20229;-86
2023/11/18 21:03:59;;;;;;;5.97;4.30;;;;;;;13.14;56.61;98852.78;6708670;29;20217;-86
2023/11/18 21:07:20;;;;;;;4.77;4.37;;;;;;;13.02;56.83;98867.25;6709650;29;20221;-86
2023/11/18 21:10:42;;;;;;;4.30;3.90;;;;;;;12.08;59.70;98870.81;6709065;29;20327;-86
2023/11/18 21:14:05;;;;;;;4.77;3.97;;;;;;;12.50;57.91;98852.13;6699972;29;20213;-86
2023/11/18 21:17:27;;;;;;;4.17;3.77;;;;;;;12.60;58.26;98852.50;6708741;29;20221;-86
2023/11/18 21:20:49;;;;;;;3.70;3.40;;;;;;;12.13;59.24;98849.38;6707596;29;20236;-86
2023/11/18 21:24:11;;;;;;;4.10;3.70;;;;;;;12.40;59.29;98862.56;6707992;29;20220;-87
2023/11/18 21:27:33;;;;;;;5.60;3.77;;;;;;;12.52;56.46;98770.78;6708260;29;20357;-86
2023/11/18 21:30:56;;;;;;;4.70;3.87;;;;;;;13.06;55.51;98784.56;6707531;29;20233;-87
2023/11/18 21:34:17;;;;;;;6.07;4.03;;;;;;;13.24;54.90;98817.94;6705744;29;20295;-87
2023/11/18 21:37:39;;;;;;;3.97;3.67;;;;;;;12.61;57.75;98856.03;6683913;29;20645;-86
2023/11/18 21:41:00;;;;;;;4.07;3.67;;;;;;;12.66;57.58;98859.75;6681325;29;20377;-86